sensor_id;sensor_type;location;lat;lon;timestamp;P1;durP1;ratioP1;P2;durP2;ratioP2
42802;SDS011;28447;48.682;9.022;2023-10-09T04:00:11;17.93;;;6.80;;
42802;SDS011;28447;48.682;9.022;2023-10-09T04:02:42;20.60;;;7.07;;
42802;SDS011;28447;48.682;9.022;2023-10-09T04:05:08;24.40;;;7.13;;
42802;SDS011;28447;48.682;9.022;2023-10-09T04:07:33;12.83;;;6.00;;
42802;SDS011;28447;48.682;9.022;2023-10-09T04:10:00;14.83;;;6.60;;
42802;SDS011;28447;48.682;9.022;2023-10-09T04:12:49;23.33;;;6.93;;
42802;SDS011;28447;48.682;9.022;2023-10-09T04:15:18;22.33;;;7.80;;
42802;SDS011;28447;48.682;9.022;2023-10-09T04:17:48;16.30;;;7.07;;
42802;SDS011;28447;48.682;9.022;2023-10-09T04:20:16;13.60;;;7.27;;
42802;SDS011;28447;48.682;9.022;2023-10-09T04:22:42;14.77;;;6.87;;
42802;SDS011;28447;48.682;9.022;2023-10-09T04:25:18;17.90;;;7.20;;
42802;SDS011;28447;48.682;9.022;2023-10-09T04:27:57;13.83;;;7.30;;
42802;SDS011;28447;48.682;9.022;2023-10-09T04:30:42;18.10;;;7.00;;
42802;SDS011;28447;48.682;9.022;2023-10-09T04:33:10;14.43;;;6.50;;
42802;SDS011;28447;48.682;9.022;2023-10-09T04:38:48;17.70;;;7.17;;
42802;SDS011;28447;48.682;9.022;2023-10-09T04:41:29;18.73;;;6.83;;
42802;SDS011;28447;48.682;9.022;2023-10-09T04:44:16;14.30;;;6.80;;
42802;SDS011;28447;48.682;9.022;2023-10-09T04:46:52;19.03;;;7.07;;
42802;SDS011;28447;48.682;9.022;2023-10-09T04:49:38;19.20;;;7.23;;
42802;SDS011;28447;48.682;9.022;2023-10-09T04:52:28;18.90;;;6.90;;
42802;SDS011;28447;48.682;9.022;2023-10-09T04:55:03;16.07;;;7.00;;
42802;SDS011;28447;48.682;9.022;2023-10-09T04:57:29;15.20;;;6.87;;
42802;SDS011;28447;48.682;9.022;2023-10-09T05:00:03;18.13;;;7.33;;
42802;SDS011;28447;48.682;9.022;2023-10-09T05:02:47;19.23;;;7.03;;
42802;SDS011;28447;48.682;9.022;2023-10-09T05:05:29;15.70;;;8.30;;
42802;SDS011;28447;48.682;9.022;2023-10-09T05:08:17;23.23;;;8.90;;
42802;SDS011;28447;48.682;9.022;2023-10-09T05:10:52;17.70;;;8.03;;
42802;SDS011;28447;48.682;9.022;2023-10-09T05:16:22;22.40;;;7.30;;
42802;SDS011;28447;48.682;9.022;2023-10-09T05:18:51;16.93;;;7.60;;
42802;SDS011;28447;48.682;9.022;2023-10-09T05:21:37;16.00;;;6.40;;
42802;SDS011;28447;48.682;9.022;2023-10-09T05:24:07;19.40;;;7.13;;
42802;SDS011;28447;48.682;9.022;2023-10-09T05:26:49;14.37;;;7.13;;
42802;SDS011;28447;48.682;9.022;2023-10-09T05:29:23;15.43;;;5.97;;
42802;SDS011;28447;48.682;9.022;2023-10-09T05:32:02;21.47;;;6.70;;
42802;SDS011;28447;48.682;9.022;2023-10-09T05:34:30;19.00;;;6.03;;
42802;SDS011;28447;48.682;9.022;2023-10-09T05:37:02;21.13;;;7.17;;
42802;SDS011;28447;48.682;9.022;2023-10-09T05:39:48;18.70;;;6.20;;
42802;SDS011;28447;48.682;9.022;2023-10-09T05:42:29;19.37;;;7.30;;
42802;SDS011;28447;48.682;9.022;2023-10-09T05:45:12;18.10;;;7.70;;
42802;SDS011;28447;48.682;9.022;2023-10-09T05:47:57;15.23;;;7.30;;
42802;SDS011;28447;48.682;9.022;2023-10-09T05:50:27;19.13;;;7.30;;
42802;SDS011;28447;48.682;9.022;2023-10-09T05:52:54;18.90;;;7.40;;
42802;SDS011;28447;48.682;9.022;2023-10-09T05:55:21;20.93;;;7.60;;
42802;SDS011;28447;48.682;9.022;2023-10-09T05:57:54;20.97;;;6.73;;
42802;SDS011;28447;48.682;9.022;2023-10-09T06:00:21;14.93;;;6.50;;
42802;SDS011;28447;48.682;9.022;2023-10-09T06:03:05;15.10;;;7.10;;
42802;SDS011;28447;48.682;9.022;2023-10-09T06:05:43;21.73;;;6.97;;
42802;SDS011;28447;48.682;9.022;2023-10-09T06:08:16;13.17;;;7.00;;
42802;SDS011;28447;48.682;9.022;2023-10-09T06:10:49;21.13;;;8.17;;
42802;SDS011;28447;48.682;9.022;2023-10-09T06:13:31;18.87;;;7.20;;
42802;SDS011;28447;48.682;9.022;2023-10-09T06:16:10;21.07;;;7.17;;
42802;SDS011;28447;48.682;9.022;2023-10-09T06:18:55;18.60;;;6.93;;
42802;SDS011;28447;48.682;9.022;2023-10-09T06:21:39;15.27;;;6.70;;
42802;SDS011;28447;48.682;9.022;2023-10-09T06:24:06;12.03;;;6.97;;
42802;SDS011;28447;48.682;9.022;2023-10-09T06:26:36;24.20;;;7.50;;
42802;SDS011;28447;48.682;9.022;2023-10-09T06:29:06;17.80;;;7.50;;
42802;SDS011;28447;48.682;9.022;2023-10-09T06:31:39;13.13;;;7.27;;
42802;SDS011;28447;48.682;9.022;2023-10-09T06:34:26;14.07;;;6.93;;
42802;SDS011;28447;48.682;9.022;2023-10-09T06:37:00;17.40;;;7.27;;
42802;SDS011;28447;48.682;9.022;2023-10-09T06:39:47;19.63;;;7.10;;
42802;SDS011;28447;48.682;9.022;2023-10-09T06:42:20;16.20;;;6.50;;
42802;SDS011;28447;48.682;9.022;2023-10-09T06:45:12;17.00;;;7.87;;
42802;SDS011;28447;48.682;9.022;2023-10-09T06:47:39;17.30;;;6.40;;
42802;SDS011;28447;48.682;9.022;2023-10-09T06:50:10;17.30;;;7.33;;
42802;SDS011;28447;48.682;9.022;2023-10-09T06:52:46;20.50;;;6.57;;
42802;SDS011;28447;48.682;9.022;2023-10-09T06:55:22;17.47;;;7.40;;
42802;SDS011;28447;48.682;9.022;2023-10-09T06:58:19;18.57;;;7.43;;
42802;SDS011;28447;48.682;9.022;2023-10-09T07:00:50;14.87;;;7.53;;
42802;SDS011;28447;48.682;9.022;2023-10-09T07:03:36;16.13;;;7.47;;
42802;SDS011;28447;48.682;9.022;2023-10-09T07:06:17;19.90;;;7.40;;
42802;SDS011;28447;48.682;9.022;2023-10-09T07:09:10;18.90;;;7.20;;
42802;SDS011;28447;48.682;9.022;2023-10-09T07:12:10;12.93;;;6.20;;
42802;SDS011;28447;48.682;9.022;2023-10-09T07:14:50;18.33;;;6.50;;
42802;SDS011;28447;48.682;9.022;2023-10-09T07:17:31;18.80;;;7.77;;
42802;SDS011;28447;48.682;9.022;2023-10-09T07:19:58;15.47;;;6.47;;
42802;SDS011;28447;48.682;9.022;2023-10-09T07:22:39;20.13;;;6.87;;
42802;SDS011;28447;48.682;9.022;2023-10-09T07:25:17;16.90;;;6.47;;
42802;SDS011;28447;48.682;9.022;2023-10-09T07:28:02;17.23;;;6.53;;
42802;SDS011;28447;48.682;9.022;2023-10-09T07:30:41;16.27;;;6.30;;
42802;SDS011;28447;48.682;9.022;2023-10-09T07:33:07;21.40;;;6.80;;
42802;SDS011;28447;48.682;9.022;2023-10-09T07:35:37;19.23;;;7.00;;
42802;SDS011;28447;48.682;9.022;2023-10-09T07:40:35;13.97;;;5.90;;
42802;SDS011;28447;48.682;9.022;2023-10-09T07:43:38;17.33;;;6.67;;
42802;SDS011;28447;48.682;9.022;2023-10-09T07:46:05;22.70;;;7.33;;
42802;SDS011;28447;48.682;9.022;2023-10-09T07:48:49;22.87;;;6.57;;
42802;SDS011;28447;48.682;9.022;2023-10-09T07:51:22;19.10;;;7.73;;
42802;SDS011;28447;48.682;9.022;2023-10-09T07:53:55;17.30;;;6.67;;
42802;SDS011;28447;48.682;9.022;2023-10-09T07:56:23;12.77;;;6.03;;
42802;SDS011;28447;48.682;9.022;2023-10-09T07:58:49;16.33;;;6.23;;
42802;SDS011;28447;48.682;9.022;2023-10-09T08:01:16;15.60;;;5.80;;
42802;SDS011;28447;48.682;9.022;2023-10-09T08:04:00;16.77;;;7.20;;
42802;SDS011;28447;48.682;9.022;2023-10-09T08:06:30;15.53;;;6.30;;
42802;SDS011;28447;48.682;9.022;2023-10-09T08:09:10;18.73;;;6.37;;
42802;SDS011;28447;48.682;9.022;2023-10-09T08:11:41;26.47;;;6.93;;
42802;SDS011;28447;48.682;9.022;2023-10-09T08:14:24;22.97;;;6.40;;
42802;SDS011;28447;48.682;9.022;2023-10-09T08:16:59;13.20;;;6.27;;
42802;SDS011;28447;48.682;9.022;2023-10-09T08:19:54;13.97;;;5.77;;
42802;SDS011;28447;48.682;9.022;2023-10-09T08:25:12;19.27;;;6.83;;
42802;SDS011;28447;48.682;9.022;2023-10-09T08:28:07;25.00;;;6.00;;
42802;SDS011;28447;48.682;9.022;2023-10-09T08:30:39;16.43;;;5.93;;
42802;SDS011;28447;48.682;9.022;2023-10-09T08:33:14;17.43;;;5.87;;
42802;SDS011;28447;48.682;9.022;2023-10-09T08:35:55;18.80;;;5.20;;
42802;SDS011;28447;48.682;9.022;2023-10-09T08:38:30;15.53;;;5.20;;
42802;SDS011;28447;48.682;9.022;2023-10-09T08:41:11;17.07;;;4.13;;
42802;SDS011;28447;48.682;9.022;2023-10-09T08:43:53;18.00;;;5.10;;
42802;SDS011;28447;48.682;9.022;2023-10-09T08:46:24;10.70;;;5.30;;
42802;SDS011;28447;48.682;9.022;2023-10-09T08:48:56;21.80;;;5.97;;
42802;SDS011;28447;48.682;9.022;2023-10-09T08:51:31;13.30;;;5.00;;
42802;SDS011;28447;48.682;9.022;2023-10-09T08:54:00;13.43;;;5.23;;
42802;SDS011;28447;48.682;9.022;2023-10-09T08:56:26;18.33;;;4.93;;
42802;SDS011;28447;48.682;9.022;2023-10-09T08:58:53;11.57;;;4.80;;
42802;SDS011;28447;48.682;9.022;2023-10-09T09:01:20;13.40;;;4.10;;
42802;SDS011;28447;48.682;9.022;2023-10-09T09:03:47;17.33;;;4.70;;
42802;SDS011;28447;48.682;9.022;2023-10-09T09:06:13;18.50;;;6.03;;
42802;SDS011;28447;48.682;9.022;2023-10-09T09:08:39;13.70;;;5.30;;
42802;SDS011;28447;48.682;9.022;2023-10-09T09:11:09;21.53;;;5.67;;
42802;SDS011;28447;48.682;9.022;2023-10-09T09:14:09;23.47;;;5.27;;
42802;SDS011;28447;48.682;9.022;2023-10-09T09:16:44;12.43;;;5.20;;
42802;SDS011;28447;48.682;9.022;2023-10-09T09:19:13;19.13;;;4.80;;
42802;SDS011;28447;48.682;9.022;2023-10-09T09:21:49;19.60;;;4.87;;
42802;SDS011;28447;48.682;9.022;2023-10-09T09:24:19;21.23;;;5.63;;
42802;SDS011;28447;48.682;9.022;2023-10-09T09:26:56;14.73;;;5.07;;
42802;SDS011;28447;48.682;9.022;2023-10-09T09:32:04;21.87;;;5.40;;
42802;SDS011;28447;48.682;9.022;2023-10-09T09:34:52;15.10;;;5.63;;
42802;SDS011;28447;48.682;9.022;2023-10-09T09:37:27;9.90;;;4.90;;
42802;SDS011;28447;48.682;9.022;2023-10-09T09:39:58;13.17;;;5.00;;
42802;SDS011;28447;48.682;9.022;2023-10-09T09:42:26;10.53;;;4.47;;
42802;SDS011;28447;48.682;9.022;2023-10-09T09:44:52;20.57;;;5.03;;
42802;SDS011;28447;48.682;9.022;2023-10-09T09:47:20;11.87;;;4.57;;
42802;SDS011;28447;48.682;9.022;2023-10-09T09:49:56;15.50;;;5.43;;
42802;SDS011;28447;48.682;9.022;2023-10-09T09:52:29;14.80;;;5.20;;
42802;SDS011;28447;48.682;9.022;2023-10-09T09:55:03;14.53;;;4.63;;
42802;SDS011;28447;48.682;9.022;2023-10-09T09:57:30;17.80;;;5.47;;
42802;SDS011;28447;48.682;9.022;2023-10-09T09:59:57;17.27;;;5.23;;
42802;SDS011;28447;48.682;9.022;2023-10-09T10:02:30;20.23;;;5.40;;
42802;SDS011;28447;48.682;9.022;2023-10-09T10:04:58;23.10;;;5.43;;
42802;SDS011;28447;48.682;9.022;2023-10-09T10:07:29;13.40;;;5.20;;
42802;SDS011;28447;48.682;9.022;2023-10-09T10:10:25;17.93;;;4.97;;
42802;SDS011;28447;48.682;9.022;2023-10-09T10:13:17;11.50;;;4.80;;
42802;SDS011;28447;48.682;9.022;2023-10-09T10:18:22;17.63;;;6.30;;
42802;SDS011;28447;48.682;9.022;2023-10-09T10:23:52;19.97;;;6.33;;
42802;SDS011;28447;48.682;9.022;2023-10-09T10:26:18;15.30;;;5.67;;
42802;SDS011;28447;48.682;9.022;2023-10-09T10:32:00;23.77;;;6.73;;
42802;SDS011;28447;48.682;9.022;2023-10-09T10:37:19;25.07;;;6.80;;
42802;SDS011;28447;48.682;9.022;2023-10-09T10:39:50;24.70;;;7.03;;
42802;SDS011;28447;48.682;9.022;2023-10-09T10:42:24;19.67;;;6.30;;
42802;SDS011;28447;48.682;9.022;2023-10-09T10:45:01;31.20;;;6.57;;
42802;SDS011;28447;48.682;9.022;2023-10-09T10:47:27;25.03;;;5.83;;
42802;SDS011;28447;48.682;9.022;2023-10-09T10:50:03;22.07;;;5.50;;
42802;SDS011;28447;48.682;9.022;2023-10-09T10:52:48;16.27;;;5.90;;
42802;SDS011;28447;48.682;9.022;2023-10-09T10:55:22;22.17;;;6.40;;
42802;SDS011;28447;48.682;9.022;2023-10-09T10:57:54;22.17;;;5.63;;
42802;SDS011;28447;48.682;9.022;2023-10-09T11:00:30;21.93;;;5.93;;
42802;SDS011;28447;48.682;9.022;2023-10-09T11:03:25;16.03;;;5.73;;
42802;SDS011;28447;48.682;9.022;2023-10-09T11:05:55;20.60;;;6.77;;
42802;SDS011;28447;48.682;9.022;2023-10-09T11:08:24;28.20;;;7.03;;
42802;SDS011;28447;48.682;9.022;2023-10-09T11:11:10;21.70;;;6.97;;
42802;SDS011;28447;48.682;9.022;2023-10-09T11:13:40;23.00;;;5.90;;
42802;SDS011;28447;48.682;9.022;2023-10-09T11:16:18;14.20;;;5.70;;
42802;SDS011;28447;48.682;9.022;2023-10-09T11:19:07;29.80;;;6.00;;
42802;SDS011;28447;48.682;9.022;2023-10-09T11:22:00;16.57;;;5.80;;
42802;SDS011;28447;48.682;9.022;2023-10-09T11:24:35;14.77;;;5.70;;
42802;SDS011;28447;48.682;9.022;2023-10-09T11:27:02;22.67;;;6.07;;
42802;SDS011;28447;48.682;9.022;2023-10-09T11:29:35;23.90;;;6.70;;
42802;SDS011;28447;48.682;9.022;2023-10-09T11:32:07;19.60;;;6.30;;
42802;SDS011;28447;48.682;9.022;2023-10-09T11:34:42;21.00;;;5.30;;
42802;SDS011;28447;48.682;9.022;2023-10-09T11:37:17;22.90;;;6.67;;
42802;SDS011;28447;48.682;9.022;2023-10-09T11:39:55;17.97;;;6.20;;
42802;SDS011;28447;48.682;9.022;2023-10-09T11:42:21;29.43;;;6.50;;
42802;SDS011;28447;48.682;9.022;2023-10-09T11:45:23;20.37;;;5.63;;
42802;SDS011;28447;48.682;9.022;2023-10-09T11:47:50;14.37;;;5.80;;
42802;SDS011;28447;48.682;9.022;2023-10-09T11:53:08;22.13;;;6.93;;
42802;SDS011;28447;48.682;9.022;2023-10-09T11:55:42;14.13;;;5.90;;
42802;SDS011;28447;48.682;9.022;2023-10-09T11:58:13;11.20;;;5.80;;
42802;SDS011;28447;48.682;9.022;2023-10-09T12:00:39;15.87;;;5.97;;
42802;SDS011;28447;48.682;9.022;2023-10-09T12:03:11;19.13;;;5.57;;
42802;SDS011;28447;48.682;9.022;2023-10-09T12:05:38;16.57;;;7.37;;
42802;SDS011;28447;48.682;9.022;2023-10-09T12:08:08;17.13;;;6.13;;
42802;SDS011;28447;48.682;9.022;2023-10-09T12:10:34;11.97;;;6.10;;
42802;SDS011;28447;48.682;9.022;2023-10-09T12:13:03;12.27;;;6.20;;
42802;SDS011;28447;48.682;9.022;2023-10-09T12:15:30;12.70;;;5.50;;
42802;SDS011;28447;48.682;9.022;2023-10-09T12:18:03;14.30;;;6.47;;
42802;SDS011;28447;48.682;9.022;2023-10-09T12:20:31;13.47;;;5.87;;
42802;SDS011;28447;48.682;9.022;2023-10-09T12:22:58;15.73;;;6.00;;
42802;SDS011;28447;48.682;9.022;2023-10-09T12:25:28;13.67;;;5.70;;
42802;SDS011;28447;48.682;9.022;2023-10-09T12:27:56;17.70;;;5.90;;
42802;SDS011;28447;48.682;9.022;2023-10-09T12:30:23;11.87;;;5.70;;
42802;SDS011;28447;48.682;9.022;2023-10-09T12:32:58;12.10;;;6.20;;
42802;SDS011;28447;48.682;9.022;2023-10-09T12:35:24;18.07;;;7.03;;
42802;SDS011;28447;48.682;9.022;2023-10-09T12:37:51;15.77;;;6.40;;
42802;SDS011;28447;48.682;9.022;2023-10-09T12:40:18;22.40;;;6.40;;
42802;SDS011;28447;48.682;9.022;2023-10-09T12:42:49;25.52;;;7.55;;
42802;SDS011;28447;48.682;9.022;2023-10-09T12:45:15;23.42;;;7.15;;
42802;SDS011;28447;48.682;9.022;2023-10-09T12:47:43;17.15;;;6.45;;
42802;SDS011;28447;48.682;9.022;2023-10-09T12:50:09;17.38;;;5.75;;
42802;SDS011;28447;48.682;9.022;2023-10-09T12:52:38;23.42;;;6.47;;
42802;SDS011;28447;48.682;9.022;2023-10-09T12:55:04;19.58;;;7.30;;
42802;SDS011;28447;48.682;9.022;2023-10-09T12:57:32;15.15;;;6.93;;
42802;SDS011;28447;48.682;9.022;2023-10-09T12:59:58;19.90;;;7.20;;
42802;SDS011;28447;48.682;9.022;2023-10-09T13:02:25;15.80;;;6.03;;
42802;SDS011;28447;48.682;9.022;2023-10-09T13:04:55;17.08;;;6.50;;
42802;SDS011;28447;48.682;9.022;2023-10-09T13:07:21;18.17;;;7.57;;
42802;SDS011;28447;48.682;9.022;2023-10-09T13:09:47;21.00;;;6.75;;
42802;SDS011;28447;48.682;9.022;2023-10-09T13:12:33;13.93;;;6.93;;
42802;SDS011;28447;48.682;9.022;2023-10-09T13:14:59;17.20;;;7.82;;
42802;SDS011;28447;48.682;9.022;2023-10-09T13:17:25;15.45;;;6.93;;
42802;SDS011;28447;48.682;9.022;2023-10-09T13:19:54;15.02;;;6.95;;
42802;SDS011;28447;48.682;9.022;2023-10-09T13:22:21;15.93;;;7.78;;
42802;SDS011;28447;48.682;9.022;2023-10-09T13:24:48;12.50;;;6.93;;
42802;SDS011;28447;48.682;9.022;2023-10-09T13:27:14;17.05;;;6.90;;
42802;SDS011;28447;48.682;9.022;2023-10-09T13:29:46;13.73;;;7.50;;
42802;SDS011;28447;48.682;9.022;2023-10-09T13:32:12;16.77;;;7.70;;
42802;SDS011;28447;48.682;9.022;2023-10-09T13:34:39;14.98;;;7.20;;
42802;SDS011;28447;48.682;9.022;2023-10-09T13:37:11;13.15;;;6.90;;
42802;SDS011;28447;48.682;9.022;2023-10-09T13:39:38;14.55;;;7.60;;
42802;SDS011;28447;48.682;9.022;2023-10-09T13:42:05;13.93;;;7.28;;
42802;SDS011;28447;48.682;9.022;2023-10-09T13:44:32;15.43;;;7.22;;
42802;SDS011;28447;48.682;9.022;2023-10-09T13:47:00;15.15;;;7.28;;
42802;SDS011;28447;48.682;9.022;2023-10-09T13:49:27;11.38;;;7.05;;
42802;SDS011;28447;48.682;9.022;2023-10-09T13:51:56;17.30;;;7.80;;
42802;SDS011;28447;48.682;9.022;2023-10-09T13:54:23;19.10;;;7.60;;
42802;SDS011;28447;48.682;9.022;2023-10-09T13:57:01;12.45;;;7.72;;
42802;SDS011;28447;48.682;9.022;2023-10-09T13:59:31;10.82;;;7.20;;
42802;SDS011;28447;48.682;9.022;2023-10-09T14:02:00;12.25;;;7.78;;
42802;SDS011;28447;48.682;9.022;2023-10-09T14:04:27;10.95;;;7.20;;
42802;SDS011;28447;48.682;9.022;2023-10-09T14:06:53;11.48;;;7.68;;
42802;SDS011;28447;48.682;9.022;2023-10-09T14:09:23;17.98;;;8.07;;
42802;SDS011;28447;48.682;9.022;2023-10-09T14:11:56;10.85;;;7.75;;
42802;SDS011;28447;48.682;9.022;2023-10-09T14:14:37;12.80;;;7.65;;
42802;SDS011;28447;48.682;9.022;2023-10-09T14:17:08;9.27;;;7.57;;
42802;SDS011;28447;48.682;9.022;2023-10-09T14:19:44;10.77;;;8.80;;
42802;SDS011;28447;48.682;9.022;2023-10-09T14:22:17;10.63;;;8.23;;
42802;SDS011;28447;48.682;9.022;2023-10-09T14:24:44;11.07;;;8.30;;
42802;SDS011;28447;48.682;9.022;2023-10-09T14:27:11;8.88;;;7.53;;
42802;SDS011;28447;48.682;9.022;2023-10-09T14:29:48;12.50;;;8.18;;
42802;SDS011;28447;48.682;9.022;2023-10-09T14:32:24;15.90;;;7.75;;
42802;SDS011;28447;48.682;9.022;2023-10-09T14:35:11;11.98;;;6.88;;
42802;SDS011;28447;48.682;9.022;2023-10-09T14:37:39;10.90;;;7.13;;
42802;SDS011;28447;48.682;9.022;2023-10-09T14:40:14;14.35;;;7.65;;
42802;SDS011;28447;48.682;9.022;2023-10-09T14:42:52;12.38;;;7.40;;
42802;SDS011;28447;48.682;9.022;2023-10-09T14:45:17;11.32;;;7.97;;
42802;SDS011;28447;48.682;9.022;2023-10-09T14:47:53;13.98;;;8.07;;
42802;SDS011;28447;48.682;9.022;2023-10-09T14:50:20;15.18;;;8.45;;
42802;SDS011;28447;48.682;9.022;2023-10-09T14:52:47;15.00;;;7.82;;
42802;SDS011;28447;48.682;9.022;2023-10-09T14:55:15;19.65;;;7.50;;
42802;SDS011;28447;48.682;9.022;2023-10-09T14:57:46;13.18;;;7.80;;
42802;SDS011;28447;48.682;9.022;2023-10-09T15:00:15;13.27;;;7.35;;
42802;SDS011;28447;48.682;9.022;2023-10-09T15:02:41;17.08;;;8.60;;
42802;SDS011;28447;48.682;9.022;2023-10-09T15:05:06;15.43;;;7.53;;
42802;SDS011;28447;48.682;9.022;2023-10-09T15:07:36;12.03;;;7.67;;
42802;SDS011;28447;48.682;9.022;2023-10-09T15:10:06;15.45;;;7.90;;
42802;SDS011;28447;48.682;9.022;2023-10-09T15:12:34;15.30;;;8.48;;
42802;SDS011;28447;48.682;9.022;2023-10-09T15:15:04;14.33;;;7.97;;
42802;SDS011;28447;48.682;9.022;2023-10-09T15:17:38;13.30;;;7.75;;
42802;SDS011;28447;48.682;9.022;2023-10-09T15:20:12;13.87;;;7.17;;
42802;SDS011;28447;48.682;9.022;2023-10-09T15:22:43;12.67;;;8.20;;
42802;SDS011;28447;48.682;9.022;2023-10-09T15:25:10;15.93;;;7.77;;
42802;SDS011;28447;48.682;9.022;2023-10-09T15:27:45;15.00;;;8.30;;
42802;SDS011;28447;48.682;9.022;2023-10-09T15:30:11;14.77;;;7.33;;
42802;SDS011;28447;48.682;9.022;2023-10-09T15:32:42;14.73;;;7.73;;
42802;SDS011;28447;48.682;9.022;2023-10-09T15:35:08;19.27;;;7.57;;
42802;SDS011;28447;48.682;9.022;2023-10-09T15:37:35;18.30;;;8.30;;
42802;SDS011;28447;48.682;9.022;2023-10-09T15:40:01;18.10;;;7.90;;
42802;SDS011;28447;48.682;9.022;2023-10-09T15:42:30;23.00;;;9.10;;
42802;SDS011;28447;48.682;9.022;2023-10-09T15:44:57;14.90;;;7.40;;
42802;SDS011;28447;48.682;9.022;2023-10-09T15:47:25;22.20;;;7.90;;
42802;SDS011;28447;48.682;9.022;2023-10-09T15:49:53;15.23;;;7.97;;
42802;SDS011;28447;48.682;9.022;2023-10-09T15:52:19;16.97;;;7.03;;
42802;SDS011;28447;48.682;9.022;2023-10-09T15:54:47;25.40;;;8.23;;
42802;SDS011;28447;48.682;9.022;2023-10-09T15:57:13;22.67;;;8.20;;
42802;SDS011;28447;48.682;9.022;2023-10-09T15:59:38;20.80;;;8.40;;
42802;SDS011;28447;48.682;9.022;2023-10-09T16:02:05;18.07;;;7.17;;
42802;SDS011;28447;48.682;9.022;2023-10-09T16:04:32;17.03;;;7.50;;
42802;SDS011;28447;48.682;9.022;2023-10-09T16:07:00;20.30;;;7.10;;
42802;SDS011;28447;48.682;9.022;2023-10-09T16:09:26;19.77;;;7.20;;
42802;SDS011;28447;48.682;9.022;2023-10-09T16:11:53;16.03;;;6.43;;
42802;SDS011;28447;48.682;9.022;2023-10-09T16:14:19;20.03;;;7.67;;
42802;SDS011;28447;48.682;9.022;2023-10-09T16:16:45;11.60;;;6.63;;
42802;SDS011;28447;48.682;9.022;2023-10-09T16:19:10;21.63;;;6.97;;
42802;SDS011;28447;48.682;9.022;2023-10-09T16:21:39;21.70;;;7.17;;
42802;SDS011;28447;48.682;9.022;2023-10-09T16:24:05;20.83;;;7.80;;
42802;SDS011;28447;48.682;9.022;2023-10-09T16:26:34;23.80;;;7.93;;
42802;SDS011;28447;48.682;9.022;2023-10-09T16:29:08;30.03;;;7.37;;
42802;SDS011;28447;48.682;9.022;2023-10-09T16:31:35;23.10;;;8.20;;
42802;SDS011;28447;48.682;9.022;2023-10-09T16:34:04;18.13;;;6.47;;
42802;SDS011;28447;48.682;9.022;2023-10-09T16:36:32;22.80;;;7.20;;
42802;SDS011;28447;48.682;9.022;2023-10-09T16:38:58;30.43;;;7.60;;
42802;SDS011;28447;48.682;9.022;2023-10-09T16:41:27;15.80;;;5.90;;
42802;SDS011;28447;48.682;9.022;2023-10-09T16:43:53;16.70;;;6.83;;
42802;SDS011;28447;48.682;9.022;2023-10-09T16:46:21;18.50;;;6.47;;
42802;SDS011;28447;48.682;9.022;2023-10-09T16:48:50;17.83;;;6.50;;
42802;SDS011;28447;48.682;9.022;2023-10-09T16:51:20;20.43;;;6.80;;
42802;SDS011;28447;48.682;9.022;2023-10-09T16:53:50;23.43;;;6.70;;
42802;SDS011;28447;48.682;9.022;2023-10-09T16:56:21;20.30;;;7.27;;
42802;SDS011;28447;48.682;9.022;2023-10-09T16:58:47;29.70;;;7.83;;
42802;SDS011;28447;48.682;9.022;2023-10-09T17:01:17;23.70;;;7.03;;
42802;SDS011;28447;48.682;9.022;2023-10-09T17:03:46;19.03;;;7.97;;
42802;SDS011;28447;48.682;9.022;2023-10-09T17:06:22;12.60;;;6.00;;
42802;SDS011;28447;48.682;9.022;2023-10-09T17:08:49;25.00;;;6.33;;
42802;SDS011;28447;48.682;9.022;2023-10-09T17:11:16;16.60;;;6.37;;
42802;SDS011;28447;48.682;9.022;2023-10-09T17:13:45;15.33;;;5.90;;
42802;SDS011;28447;48.682;9.022;2023-10-09T17:16:15;20.07;;;6.70;;
42802;SDS011;28447;48.682;9.022;2023-10-09T17:18:45;19.30;;;6.33;;
42802;SDS011;28447;48.682;9.022;2023-10-09T17:21:12;24.87;;;7.17;;
42802;SDS011;28447;48.682;9.022;2023-10-09T17:23:45;18.60;;;6.67;;
42802;SDS011;28447;48.682;9.022;2023-10-09T17:26:11;19.80;;;7.20;;
42802;SDS011;28447;48.682;9.022;2023-10-09T17:28:39;29.40;;;7.20;;
42802;SDS011;28447;48.682;9.022;2023-10-09T17:31:05;17.07;;;6.80;;
42802;SDS011;28447;48.682;9.022;2023-10-09T17:33:32;25.80;;;6.60;;
42802;SDS011;28447;48.682;9.022;2023-10-09T17:35:59;22.07;;;6.43;;
42802;SDS011;28447;48.682;9.022;2023-10-09T17:38:25;18.57;;;6.30;;
42802;SDS011;28447;48.682;9.022;2023-10-09T17:40:51;19.73;;;6.27;;
42802;SDS011;28447;48.682;9.022;2023-10-09T17:43:18;15.97;;;6.00;;
42802;SDS011;28447;48.682;9.022;2023-10-09T17:45:44;24.27;;;7.40;;
42802;SDS011;28447;48.682;9.022;2023-10-09T17:48:10;20.17;;;6.27;;
42802;SDS011;28447;48.682;9.022;2023-10-09T17:50:36;27.07;;;7.40;;
42802;SDS011;28447;48.682;9.022;2023-10-09T17:53:08;21.63;;;6.30;;
42802;SDS011;28447;48.682;9.022;2023-10-09T17:55:36;21.60;;;6.50;;
42802;SDS011;28447;48.682;9.022;2023-10-09T17:58:02;26.63;;;6.90;;
42802;SDS011;28447;48.682;9.022;2023-10-09T18:00:34;18.43;;;7.00;;
42802;SDS011;28447;48.682;9.022;2023-10-09T18:03:00;20.27;;;7.50;;
42802;SDS011;28447;48.682;9.022;2023-10-09T18:05:26;22.47;;;7.40;;
42802;SDS011;28447;48.682;9.022;2023-10-09T18:07:55;18.70;;;6.27;;
42802;SDS011;28447;48.682;9.022;2023-10-09T18:10:24;17.53;;;6.30;;
42802;SDS011;28447;48.682;9.022;2023-10-09T18:12:50;16.90;;;6.47;;
42802;SDS011;28447;48.682;9.022;2023-10-09T18:15:16;32.60;;;7.60;;
42802;SDS011;28447;48.682;9.022;2023-10-09T18:17:45;21.63;;;7.47;;
42802;SDS011;28447;48.682;9.022;2023-10-09T18:20:11;15.80;;;6.93;;
42802;SDS011;28447;48.682;9.022;2023-10-09T18:22:39;18.97;;;7.50;;
42802;SDS011;28447;48.682;9.022;2023-10-09T18:25:05;37.03;;;7.80;;
42802;SDS011;28447;48.682;9.022;2023-10-09T18:27:31;28.83;;;6.90;;
42802;SDS011;28447;48.682;9.022;2023-10-09T18:29:58;26.80;;;6.33;;
42802;SDS011;28447;48.682;9.022;2023-10-09T18:32:24;15.00;;;6.60;;
42802;SDS011;28447;48.682;9.022;2023-10-09T18:34:50;17.57;;;6.30;;
42802;SDS011;28447;48.682;9.022;2023-10-09T18:37:17;13.20;;;6.03;;
42802;SDS011;28447;48.682;9.022;2023-10-09T18:39:46;23.60;;;7.03;;
42802;SDS011;28447;48.682;9.022;2023-10-09T18:42:14;20.10;;;6.07;;
42802;SDS011;28447;48.682;9.022;2023-10-09T18:44:40;16.13;;;6.47;;
42802;SDS011;28447;48.682;9.022;2023-10-09T18:47:07;15.93;;;6.13;;
42802;SDS011;28447;48.682;9.022;2023-10-09T18:49:33;15.23;;;7.07;;
42802;SDS011;28447;48.682;9.022;2023-10-09T18:52:02;20.90;;;7.03;;
42802;SDS011;28447;48.682;9.022;2023-10-09T18:54:31;18.50;;;6.90;;
42802;SDS011;28447;48.682;9.022;2023-10-09T18:57:01;20.13;;;6.97;;
42802;SDS011;28447;48.682;9.022;2023-10-09T18:59:28;16.90;;;6.50;;
42802;SDS011;28447;48.682;9.022;2023-10-09T19:01:54;17.60;;;6.27;;
42802;SDS011;28447;48.682;9.022;2023-10-09T19:04:22;17.40;;;6.80;;
42802;SDS011;28447;48.682;9.022;2023-10-09T19:06:48;19.33;;;6.43;;
42802;SDS011;28447;48.682;9.022;2023-10-09T19:09:15;19.53;;;6.50;;
42802;SDS011;28447;48.682;9.022;2023-10-09T19:12:01;22.40;;;7.17;;
42802;SDS011;28447;48.682;9.022;2023-10-09T19:14:33;16.47;;;6.03;;
42802;SDS011;28447;48.682;9.022;2023-10-09T19:17:00;20.70;;;6.30;;
42802;SDS011;28447;48.682;9.022;2023-10-09T19:19:26;21.87;;;6.90;;
42802;SDS011;28447;48.682;9.022;2023-10-09T19:21:52;17.67;;;6.37;;
42802;SDS011;28447;48.682;9.022;2023-10-09T19:24:19;18.70;;;6.93;;
42802;SDS011;28447;48.682;9.022;2023-10-09T19:26:45;16.57;;;6.30;;
42802;SDS011;28447;48.682;9.022;2023-10-09T19:29:11;11.57;;;6.63;;
42802;SDS011;28447;48.682;9.022;2023-10-09T19:31:37;17.43;;;6.97;;